ADDS TAF Data INFO
IDs: Format: Raw Decoded Include METARs

Data at: 1257 UTC 20 Jan 2018

KFLG 201157Z AUTO 21017G29KT 10SM BKN045 OVC055 04/M07 A2986 RMK AO2 PK WND 22029/1145 SLP060 T00441067 10044 21033 56014

KFLG 201135Z 2012/2112 22017G27KT P6SM BKN040 OVC070
  FM201400 22018G28KT 5SM -SHSN SCT015 OVC040
  TEMPO 2014/2016 22025G33KT 3SM -SHSN OVC015
  FM201600 22021G31KT 1SM -SHSN OVC010
  TEMPO 2021/2024 4SM -SHSN BKN015
  FM210000 24012G22KT 1SM -SHSN OVC009